KANB/ANB METAR and TAF weather

Enter ICAO airport designator
Station Type Date Time Source
KANB METAR 2020/09/19 04:53 UTC NOAA

KANB 190453Z AUTO 04007KT 10SM CLR 21/14 A3006 RMK AO2 SLP171 T02060144


Station Type Date Time Source
KANB Decoded METAR 2020/09/19 04:53 UTC NOAA

ANNISTON METRO AIRPORT, AL, United States (KANB) 33-35N 085-51W 183M
Sep 19, 2020 - 12:53 AM EDT / 2020.09.19 0453 UTC
Wind: from the NE (040 degrees) at 8 MPH (7 KT):0
Visibility: 10 mile(s):0
Sky conditions: clear
Temperature: 69.1 F (20.6 C)
Dew Point: 57.9 F (14.4 C)
Relative Humidity: 67%
Pressure (altimeter): 30.06 in. Hg (1017 hPa)
ob: KANB 190453Z AUTO 04007KT 10SM CLR 21/14 A3006 RMK AO2 SLP171 T02060144
cycle: 5

Station Type Date Time Source
KANB TAF 2020/09/19 06:44 UTC NOAA

TAF KANB 190540Z 1906/2006 03006KT P6SM OVC120
FM191200 07006KT P6SM OVC028
FM191600 08008KT P6SM OVC050

Example: see airport list